Lake Orion, MI (48362)

11:18 PM EDT on August 29, 2015 (GMT -0400)
Red Barn Subdivision | | Change Station
CLOSE
Current Station
Personal Weather Station
Location: Oxford Charter Township, MI
Elevation: 1020 ft
Nearby Weather Stations

Elev 1020 ft 42.80 °N, 83.25 °W | Updated 4 minutes ago

Overcast
Overcast
63.5 °F
Feels Like 63.5 °F
N
0.0
Wind Variable Wind from ESE

Today
High -- | Low -- °F
--% Chance of Precip.
Yesterday
High -- | Low -- °F
Precip. -- in
6:54 AM 8:13 PM
Full, 100% visible
Pressure 30.08 in
Visibility 6.0 miles
Clouds Mostly Cloudy 4500 ft
Overcast 13000 ft
Dew Point 63 °F
Humidity 97%
Rainfall 0.03 in
Snow Depth Not available.
UV 0 out of 12
Pollen 8.60 out of 12
Air Quality Not available.
Flu Activity Not available.
METAR KPTK 300253Z 00000KT 6SM -RA BR BKN045 OVC130 18/18 A3009 RMK AO2 RAB28 SLP185 P0002 60003 T01830178 51009
Pressure 30.08 in
Visibility 6.0 miles
Clouds Mostly Cloudy 4500 ft
Overcast 13000 ft
Dew Point 63 °F
Humidity 97%
Rainfall 0.03 in
Snow Depth Not available.
UV 0 out of 12
Pollen 8.60 out of 12
Air Quality Not available.
Flu Activity Not available.
METAR KPTK 300253Z 00000KT 6SM -RA BR BKN045 OVC130 18/18 A3009 RMK AO2 RAB28 SLP185 P0002 60003 T01830178 51009

10-Day Weather Forecast

×

Almanac

Astronomy

Aug. 29, 2015 Rise Set
Actual Time
Civil Twilight
Nautical Twilight
Astronomical Twilight
Moon
Length of Visible Light
Length of Day
Tomorrow will be .
, % of the Moon is Illuminated

Today's Extremes

State Highs State Lows

Community

WunderPhotos

Upload Photos

1,850,867 photos uploaded!

WunderBlogs® & News

Nearby

Air Quality

  Air Quality AQ Index Pollutant
Not available.

Snow Depth

Station Depth Elevation

Earthquake Activity

City Distance Mag. Time & Date
Minimum magnitude displayed is 2.5.

Coastal Water Temperatures

Place Temperature

Stations

Nearby Weather Stations

Station Location Temp. Windchill Dew Point Humidity Wind Precip. Elev Updated Type